KZZV/ZZV METAR and TAF weather

Enter ICAO airport designator
Station Type Date Time Source
KZZV METAR 2022/05/23 13:53 UTC NOAA

KZZV 231353Z AUTO 04006KT 10SM CLR 16/10 A3029 RMK AO2 SLP254 T01560100


Station Type Date Time Source
KZZV Decoded METAR 2022/05/23 13:53 UTC NOAA

ZANESVILLE MUNICIPAL AIRPORT , OH, United States (KZZV) 39-57N 81-54W 268M
May 23, 2022 - 09:53 AM EDT / 2022.05.23 1353 UTC
Wind: from the NE (040 degrees) at 7 MPH (6 KT):0
Visibility: 10 mile(s):0
Sky conditions: clear
Temperature: 60.1 F (15.6 C)
Dew Point: 50.0 F (10.0 C)
Relative Humidity: 69%
Pressure (altimeter): 30.29 in. Hg (1025 hPa)
ob: KZZV 231353Z AUTO 04006KT 10SM CLR 16/10 A3029 RMK AO2 SLP254 T01560100
cycle: 14

Station Type Date Time Source
KZZV TAF 2022/05/23 12:22 UTC NOAA

TAF KZZV 231120Z 2312/2412 05007KT P6SM BKN100

Example: see airport list